sensor_id;sensor_type;location;lat;lon;timestamp;P1;durP1;ratioP1;P2;durP2;ratioP2
10529;SDS011;5313;48.834;9.228;2022-08-20T00:00:07;2.03;;;1.20;;
10529;SDS011;5313;48.834;9.228;2022-08-20T00:02:41;1.87;;;1.30;;
10529;SDS011;5313;48.834;9.228;2022-08-20T00:05:09;1.43;;;1.33;;
10529;SDS011;5313;48.834;9.228;2022-08-20T00:07:35;2.33;;;1.30;;
10529;SDS011;5313;48.834;9.228;2022-08-20T00:10:01;2.90;;;1.20;;
10529;SDS011;5313;48.834;9.228;2022-08-20T00:12:27;1.70;;;1.30;;
10529;SDS011;5313;48.834;9.228;2022-08-20T00:14:53;1.90;;;1.30;;
10529;SDS011;5313;48.834;9.228;2022-08-20T00:17:19;1.77;;;1.37;;
10529;SDS011;5313;48.834;9.228;2022-08-20T00:19:44;1.67;;;1.33;;
10529;SDS011;5313;48.834;9.228;2022-08-20T00:22:10;2.33;;;1.20;;
10529;SDS011;5313;48.834;9.228;2022-08-20T00:24:35;2.70;;;1.30;;
10529;SDS011;5313;48.834;9.228;2022-08-20T00:27:01;1.57;;;1.20;;
10529;SDS011;5313;48.834;9.228;2022-08-20T00:29:26;1.23;;;1.13;;
10529;SDS011;5313;48.834;9.228;2022-08-20T00:31:52;2.93;;;1.30;;
10529;SDS011;5313;48.834;9.228;2022-08-20T00:34:17;2.30;;;1.30;;
10529;SDS011;5313;48.834;9.228;2022-08-20T00:36:43;1.47;;;1.10;;
10529;SDS011;5313;48.834;9.228;2022-08-20T00:39:09;2.23;;;1.13;;
10529;SDS011;5313;48.834;9.228;2022-08-20T00:41:34;1.60;;;1.40;;
10529;SDS011;5313;48.834;9.228;2022-08-20T00:44:05;1.30;;;1.20;;
10529;SDS011;5313;48.834;9.228;2022-08-20T00:46:43;1.27;;;1.10;;
10529;SDS011;5313;48.834;9.228;2022-08-20T00:49:11;1.37;;;1.10;;
10529;SDS011;5313;48.834;9.228;2022-08-20T00:51:43;1.37;;;1.13;;
10529;SDS011;5313;48.834;9.228;2022-08-20T00:54:33;1.17;;;1.07;;
10529;SDS011;5313;48.834;9.228;2022-08-20T00:57:16;1.90;;;1.20;;
10529;SDS011;5313;48.834;9.228;2022-08-20T00:59:48;1.07;;;0.97;;
10529;SDS011;5313;48.834;9.228;2022-08-20T01:02:15;1.50;;;1.17;;
10529;SDS011;5313;48.834;9.228;2022-08-20T01:04:43;1.33;;;1.10;;
10529;SDS011;5313;48.834;9.228;2022-08-20T01:07:19;3.37;;;1.40;;
10529;SDS011;5313;48.834;9.228;2022-08-20T01:09:45;2.40;;;1.50;;
10529;SDS011;5313;48.834;9.228;2022-08-20T01:12:13;1.20;;;1.10;;
10529;SDS011;5313;48.834;9.228;2022-08-20T01:14:40;1.57;;;1.27;;
10529;SDS011;5313;48.834;9.228;2022-08-20T01:17:10;2.33;;;1.40;;
10529;SDS011;5313;48.834;9.228;2022-08-20T01:19:52;1.53;;;1.10;;
10529;SDS011;5313;48.834;9.228;2022-08-20T01:22:34;1.60;;;1.10;;
10529;SDS011;5313;48.834;9.228;2022-08-20T01:25:27;1.83;;;1.30;;
10529;SDS011;5313;48.834;9.228;2022-08-20T01:28:12;2.13;;;1.30;;
10529;SDS011;5313;48.834;9.228;2022-08-20T01:30:40;1.77;;;1.27;;
10529;SDS011;5313;48.834;9.228;2022-08-20T01:33:06;1.20;;;1.10;;
10529;SDS011;5313;48.834;9.228;2022-08-20T01:35:39;1.53;;;1.30;;
10529;SDS011;5313;48.834;9.228;2022-08-20T01:38:06;2.43;;;1.23;;
10529;SDS011;5313;48.834;9.228;2022-08-20T01:43:30;1.30;;;1.20;;
10529;SDS011;5313;48.834;9.228;2022-08-20T01:45:56;1.40;;;1.30;;
10529;SDS011;5313;48.834;9.228;2022-08-20T01:48:22;1.10;;;1.00;;
10529;SDS011;5313;48.834;9.228;2022-08-20T01:50:52;1.63;;;1.20;;
10529;SDS011;5313;48.834;9.228;2022-08-20T01:53:39;1.17;;;1.07;;
10529;SDS011;5313;48.834;9.228;2022-08-20T01:56:09;2.73;;;1.20;;
10529;SDS011;5313;48.834;9.228;2022-08-20T01:58:39;2.77;;;1.27;;
10529;SDS011;5313;48.834;9.228;2022-08-20T02:01:06;1.67;;;1.10;;
10529;SDS011;5313;48.834;9.228;2022-08-20T02:03:41;1.93;;;1.23;;
10529;SDS011;5313;48.834;9.228;2022-08-20T02:06:08;1.80;;;1.30;;
10529;SDS011;5313;48.834;9.228;2022-08-20T02:08:34;1.10;;;1.00;;
10529;SDS011;5313;48.834;9.228;2022-08-20T02:10:59;1.43;;;1.00;;
10529;SDS011;5313;48.834;9.228;2022-08-20T02:13:25;1.20;;;1.10;;
10529;SDS011;5313;48.834;9.228;2022-08-20T02:15:51;1.60;;;1.20;;
10529;SDS011;5313;48.834;9.228;2022-08-20T02:18:16;1.57;;;1.10;;
10529;SDS011;5313;48.834;9.228;2022-08-20T02:20:42;1.47;;;1.10;;
10529;SDS011;5313;48.834;9.228;2022-08-20T02:23:09;2.30;;;1.40;;
10529;SDS011;5313;48.834;9.228;2022-08-20T02:25:36;1.17;;;1.07;;
10529;SDS011;5313;48.834;9.228;2022-08-20T02:28:06;1.30;;;1.20;;
10529;SDS011;5313;48.834;9.228;2022-08-20T02:30:35;1.50;;;1.20;;
10529;SDS011;5313;48.834;9.228;2022-08-20T02:33:04;1.57;;;1.20;;
10529;SDS011;5313;48.834;9.228;2022-08-20T02:35:32;2.20;;;1.23;;
10529;SDS011;5313;48.834;9.228;2022-08-20T02:37:58;1.33;;;1.23;;
10529;SDS011;5313;48.834;9.228;2022-08-20T02:40:24;1.40;;;1.27;;
10529;SDS011;5313;48.834;9.228;2022-08-20T02:42:51;1.27;;;1.17;;
10529;SDS011;5313;48.834;9.228;2022-08-20T02:45:17;1.10;;;1.00;;
10529;SDS011;5313;48.834;9.228;2022-08-20T02:47:44;1.63;;;1.40;;
10529;SDS011;5313;48.834;9.228;2022-08-20T02:50:10;1.43;;;1.30;;
10529;SDS011;5313;48.834;9.228;2022-08-20T02:52:40;1.13;;;1.03;;
10529;SDS011;5313;48.834;9.228;2022-08-20T02:55:06;2.07;;;1.20;;
10529;SDS011;5313;48.834;9.228;2022-08-20T02:57:32;1.60;;;1.10;;
10529;SDS011;5313;48.834;9.228;2022-08-20T02:59:58;2.70;;;1.40;;
10529;SDS011;5313;48.834;9.228;2022-08-20T03:02:24;2.17;;;1.07;;
10529;SDS011;5313;48.834;9.228;2022-08-20T03:04:49;1.50;;;1.17;;
10529;SDS011;5313;48.834;9.228;2022-08-20T03:07:15;1.60;;;1.30;;
10529;SDS011;5313;48.834;9.228;2022-08-20T03:09:41;1.40;;;1.30;;
10529;SDS011;5313;48.834;9.228;2022-08-20T03:12:06;1.30;;;1.20;;
10529;SDS011;5313;48.834;9.228;2022-08-20T03:14:32;2.57;;;1.40;;
10529;SDS011;5313;48.834;9.228;2022-08-20T03:16:59;2.63;;;1.43;;
10529;SDS011;5313;48.834;9.228;2022-08-20T03:19:25;1.97;;;1.33;;
10529;SDS011;5313;48.834;9.228;2022-08-20T03:21:51;5.53;;;2.30;;
10529;SDS011;5313;48.834;9.228;2022-08-20T03:24:17;3.90;;;1.40;;
10529;SDS011;5313;48.834;9.228;2022-08-20T03:26:43;2.03;;;1.53;;
10529;SDS011;5313;48.834;9.228;2022-08-20T03:29:08;1.40;;;1.30;;
10529;SDS011;5313;48.834;9.228;2022-08-20T03:31:34;1.50;;;1.40;;
10529;SDS011;5313;48.834;9.228;2022-08-20T03:34:00;2.53;;;1.30;;
10529;SDS011;5313;48.834;9.228;2022-08-20T03:36:26;3.00;;;1.40;;
10529;SDS011;5313;48.834;9.228;2022-08-20T03:38:52;3.97;;;1.87;;
10529;SDS011;5313;48.834;9.228;2022-08-20T03:41:18;3.23;;;1.27;;
10529;SDS011;5313;48.834;9.228;2022-08-20T03:43:44;2.40;;;1.40;;
10529;SDS011;5313;48.834;9.228;2022-08-20T03:46:10;1.93;;;1.20;;
10529;SDS011;5313;48.834;9.228;2022-08-20T03:48:35;1.53;;;1.40;;
10529;SDS011;5313;48.834;9.228;2022-08-20T03:51:02;1.50;;;1.30;;
10529;SDS011;5313;48.834;9.228;2022-08-20T03:53:28;1.40;;;1.30;;
10529;SDS011;5313;48.834;9.228;2022-08-20T03:55:58;1.60;;;1.50;;
10529;SDS011;5313;48.834;9.228;2022-08-20T03:58:28;2.80;;;1.63;;
10529;SDS011;5313;48.834;9.228;2022-08-20T04:00:54;1.40;;;1.30;;
10529;SDS011;5313;48.834;9.228;2022-08-20T04:03:20;1.80;;;1.70;;
10529;SDS011;5313;48.834;9.228;2022-08-20T04:05:46;3.00;;;1.60;;
10529;SDS011;5313;48.834;9.228;2022-08-20T04:08:13;2.43;;;1.77;;
10529;SDS011;5313;48.834;9.228;2022-08-20T04:10:42;2.27;;;1.60;;
10529;SDS011;5313;48.834;9.228;2022-08-20T04:13:09;2.27;;;1.70;;
10529;SDS011;5313;48.834;9.228;2022-08-20T04:15:35;2.27;;;1.80;;
10529;SDS011;5313;48.834;9.228;2022-08-20T04:18:01;1.97;;;1.70;;
10529;SDS011;5313;48.834;9.228;2022-08-20T04:20:31;2.40;;;1.60;;
10529;SDS011;5313;48.834;9.228;2022-08-20T04:22:57;1.90;;;1.50;;
10529;SDS011;5313;48.834;9.228;2022-08-20T04:25:23;2.30;;;1.80;;
10529;SDS011;5313;48.834;9.228;2022-08-20T04:27:49;2.33;;;1.70;;
10529;SDS011;5313;48.834;9.228;2022-08-20T04:30:16;2.07;;;1.87;;
10529;SDS011;5313;48.834;9.228;2022-08-20T04:32:43;3.07;;;1.90;;
10529;SDS011;5313;48.834;9.228;2022-08-20T04:35:10;1.83;;;1.47;;
10529;SDS011;5313;48.834;9.228;2022-08-20T04:37:39;2.03;;;1.83;;
10529;SDS011;5313;48.834;9.228;2022-08-20T04:40:06;2.30;;;1.60;;
10529;SDS011;5313;48.834;9.228;2022-08-20T04:42:53;1.93;;;1.73;;
10529;SDS011;5313;48.834;9.228;2022-08-20T04:45:18;2.00;;;1.90;;
10529;SDS011;5313;48.834;9.228;2022-08-20T04:47:45;2.20;;;2.00;;
10529;SDS011;5313;48.834;9.228;2022-08-20T04:50:12;2.97;;;2.00;;
10529;SDS011;5313;48.834;9.228;2022-08-20T04:52:38;2.53;;;1.83;;
10529;SDS011;5313;48.834;9.228;2022-08-20T04:55:04;6.60;;;1.77;;
10529;SDS011;5313;48.834;9.228;2022-08-20T04:57:31;3.90;;;1.80;;
10529;SDS011;5313;48.834;9.228;2022-08-20T04:59:58;2.83;;;1.97;;
10529;SDS011;5313;48.834;9.228;2022-08-20T05:02:24;4.07;;;2.13;;
10529;SDS011;5313;48.834;9.228;2022-08-20T05:04:49;2.70;;;1.97;;
10529;SDS011;5313;48.834;9.228;2022-08-20T05:07:16;2.30;;;2.10;;
10529;SDS011;5313;48.834;9.228;2022-08-20T05:09:43;2.30;;;2.10;;
10529;SDS011;5313;48.834;9.228;2022-08-20T05:12:09;4.77;;;2.90;;
10529;SDS011;5313;48.834;9.228;2022-08-20T05:14:36;5.33;;;3.00;;
10529;SDS011;5313;48.834;9.228;2022-08-20T05:17:02;4.30;;;3.13;;
10529;SDS011;5313;48.834;9.228;2022-08-20T05:19:29;7.20;;;3.90;;
10529;SDS011;5313;48.834;9.228;2022-08-20T05:21:55;5.77;;;3.70;;
10529;SDS011;5313;48.834;9.228;2022-08-20T05:24:22;7.47;;;3.80;;
10529;SDS011;5313;48.834;9.228;2022-08-20T05:26:47;5.53;;;3.60;;
10529;SDS011;5313;48.834;9.228;2022-08-20T05:29:13;5.23;;;3.60;;
10529;SDS011;5313;48.834;9.228;2022-08-20T05:31:39;5.43;;;3.50;;
10529;SDS011;5313;48.834;9.228;2022-08-20T05:34:08;4.97;;;3.83;;
10529;SDS011;5313;48.834;9.228;2022-08-20T05:36:36;5.03;;;3.70;;
10529;SDS011;5313;48.834;9.228;2022-08-20T05:39:03;4.10;;;3.53;;
10529;SDS011;5313;48.834;9.228;2022-08-20T05:41:29;5.53;;;3.53;;
10529;SDS011;5313;48.834;9.228;2022-08-20T05:43:58;4.53;;;3.43;;
10529;SDS011;5313;48.834;9.228;2022-08-20T05:46:27;3.73;;;3.30;;
10529;SDS011;5313;48.834;9.228;2022-08-20T05:48:56;6.00;;;3.70;;
10529;SDS011;5313;48.834;9.228;2022-08-20T05:51:21;3.63;;;3.10;;
10529;SDS011;5313;48.834;9.228;2022-08-20T05:53:47;4.90;;;3.13;;
10529;SDS011;5313;48.834;9.228;2022-08-20T05:56:13;5.50;;;3.50;;
10529;SDS011;5313;48.834;9.228;2022-08-20T05:58:38;3.30;;;3.00;;
10529;SDS011;5313;48.834;9.228;2022-08-20T06:01:04;3.50;;;2.87;;
10529;SDS011;5313;48.834;9.228;2022-08-20T06:03:30;4.37;;;3.40;;
10529;SDS011;5313;48.834;9.228;2022-08-20T06:06:14;5.00;;;3.03;;
10529;SDS011;5313;48.834;9.228;2022-08-20T06:08:39;3.77;;;3.40;;
10529;SDS011;5313;48.834;9.228;2022-08-20T06:11:05;4.53;;;3.23;;
10529;SDS011;5313;48.834;9.228;2022-08-20T06:13:31;3.53;;;3.17;;
10529;SDS011;5313;48.834;9.228;2022-08-20T06:15:57;3.77;;;3.13;;
10529;SDS011;5313;48.834;9.228;2022-08-20T06:18:23;3.50;;;2.90;;
10529;SDS011;5313;48.834;9.228;2022-08-20T06:20:48;3.73;;;3.10;;
10529;SDS011;5313;48.834;9.228;2022-08-20T06:23:14;4.23;;;3.03;;
10529;SDS011;5313;48.834;9.228;2022-08-20T06:25:40;3.20;;;2.80;;
10529;SDS011;5313;48.834;9.228;2022-08-20T06:28:06;3.00;;;2.70;;
10529;SDS011;5313;48.834;9.228;2022-08-20T06:30:32;3.33;;;3.00;;
10529;SDS011;5313;48.834;9.228;2022-08-20T06:32:57;4.00;;;3.03;;
10529;SDS011;5313;48.834;9.228;2022-08-20T06:35:23;4.30;;;3.37;;
10529;SDS011;5313;48.834;9.228;2022-08-20T06:37:49;3.33;;;3.03;;
10529;SDS011;5313;48.834;9.228;2022-08-20T06:40:18;3.93;;;2.90;;
10529;SDS011;5313;48.834;9.228;2022-08-20T06:42:48;3.80;;;2.93;;
10529;SDS011;5313;48.834;9.228;2022-08-20T06:45:16;3.80;;;3.00;;
10529;SDS011;5313;48.834;9.228;2022-08-20T06:47:44;3.87;;;3.43;;
10529;SDS011;5313;48.834;9.228;2022-08-20T06:50:12;3.37;;;2.90;;
10529;SDS011;5313;48.834;9.228;2022-08-20T06:52:40;3.70;;;3.10;;
10529;SDS011;5313;48.834;9.228;2022-08-20T06:55:07;4.47;;;3.37;;
10529;SDS011;5313;48.834;9.228;2022-08-20T06:57:35;4.33;;;3.77;;
10529;SDS011;5313;48.834;9.228;2022-08-20T07:00:06;6.07;;;3.30;;
10529;SDS011;5313;48.834;9.228;2022-08-20T07:02:34;4.73;;;3.60;;
10529;SDS011;5313;48.834;9.228;2022-08-20T07:05:01;4.70;;;3.40;;
10529;SDS011;5313;48.834;9.228;2022-08-20T07:07:29;3.20;;;2.90;;
10529;SDS011;5313;48.834;9.228;2022-08-20T07:10:02;3.93;;;3.20;;
10529;SDS011;5313;48.834;9.228;2022-08-20T07:12:33;5.60;;;3.40;;
10529;SDS011;5313;48.834;9.228;2022-08-20T07:15:00;3.80;;;3.10;;
10529;SDS011;5313;48.834;9.228;2022-08-20T07:17:29;3.43;;;3.13;;
10529;SDS011;5313;48.834;9.228;2022-08-20T07:19:55;3.40;;;3.10;;
10529;SDS011;5313;48.834;9.228;2022-08-20T07:22:20;4.70;;;3.87;;
10529;SDS011;5313;48.834;9.228;2022-08-20T07:24:46;5.67;;;4.40;;
10529;SDS011;5313;48.834;9.228;2022-08-20T07:27:11;8.40;;;4.70;;
10529;SDS011;5313;48.834;9.228;2022-08-20T07:29:37;5.30;;;4.80;;
10529;SDS011;5313;48.834;9.228;2022-08-20T07:32:21;4.53;;;4.13;;
10529;SDS011;5313;48.834;9.228;2022-08-20T07:35:02;3.97;;;3.40;;
10529;SDS011;5313;48.834;9.228;2022-08-20T07:37:30;4.00;;;3.57;;
10529;SDS011;5313;48.834;9.228;2022-08-20T07:39:55;5.00;;;4.13;;
10529;SDS011;5313;48.834;9.228;2022-08-20T07:42:21;8.30;;;4.30;;
10529;SDS011;5313;48.834;9.228;2022-08-20T07:44:47;5.00;;;3.67;;
10529;SDS011;5313;48.834;9.228;2022-08-20T07:47:16;3.93;;;3.53;;
10529;SDS011;5313;48.834;9.228;2022-08-20T07:49:42;5.43;;;3.20;;
10529;SDS011;5313;48.834;9.228;2022-08-20T07:52:08;4.47;;;3.87;;
10529;SDS011;5313;48.834;9.228;2022-08-20T07:54:33;5.27;;;4.30;;
10529;SDS011;5313;48.834;9.228;2022-08-20T07:57:01;4.13;;;3.70;;
10529;SDS011;5313;48.834;9.228;2022-08-20T07:59:28;4.13;;;3.73;;
10529;SDS011;5313;48.834;9.228;2022-08-20T08:01:54;3.80;;;3.27;;
10529;SDS011;5313;48.834;9.228;2022-08-20T08:04:19;3.40;;;3.10;;
10529;SDS011;5313;48.834;9.228;2022-08-20T08:06:45;5.73;;;3.20;;
10529;SDS011;5313;48.834;9.228;2022-08-20T08:09:11;3.13;;;2.83;;
10529;SDS011;5313;48.834;9.228;2022-08-20T08:11:39;3.93;;;3.17;;
10529;SDS011;5313;48.834;9.228;2022-08-20T08:14:07;4.17;;;3.10;;
10529;SDS011;5313;48.834;9.228;2022-08-20T08:16:35;3.90;;;2.90;;
10529;SDS011;5313;48.834;9.228;2022-08-20T08:19:01;3.10;;;2.80;;
10529;SDS011;5313;48.834;9.228;2022-08-20T08:21:30;3.00;;;2.63;;
10529;SDS011;5313;48.834;9.228;2022-08-20T08:23:56;3.00;;;2.70;;
10529;SDS011;5313;48.834;9.228;2022-08-20T08:26:22;7.47;;;2.90;;
10529;SDS011;5313;48.834;9.228;2022-08-20T08:28:48;5.20;;;2.73;;
10529;SDS011;5313;48.834;9.228;2022-08-20T08:31:13;3.00;;;2.53;;
10529;SDS011;5313;48.834;9.228;2022-08-20T08:33:39;6.50;;;2.97;;
10529;SDS011;5313;48.834;9.228;2022-08-20T08:36:10;3.57;;;2.70;;
10529;SDS011;5313;48.834;9.228;2022-08-20T08:38:38;3.77;;;2.73;;
10529;SDS011;5313;48.834;9.228;2022-08-20T08:43:58;5.03;;;3.47;;
10529;SDS011;5313;48.834;9.228;2022-08-20T08:46:37;4.00;;;3.60;;
10529;SDS011;5313;48.834;9.228;2022-08-20T08:49:09;4.77;;;3.73;;
10529;SDS011;5313;48.834;9.228;2022-08-20T08:51:42;4.77;;;3.93;;
10529;SDS011;5313;48.834;9.228;2022-08-20T08:54:13;4.90;;;4.50;;
10529;SDS011;5313;48.834;9.228;2022-08-20T08:56:41;5.97;;;4.33;;
10529;SDS011;5313;48.834;9.228;2022-08-20T08:59:07;4.73;;;4.33;;
10529;SDS011;5313;48.834;9.228;2022-08-20T09:01:38;4.80;;;4.30;;
10529;SDS011;5313;48.834;9.228;2022-08-20T09:04:09;5.23;;;4.50;;
10529;SDS011;5313;48.834;9.228;2022-08-20T09:06:36;4.50;;;4.10;;
10529;SDS011;5313;48.834;9.228;2022-08-20T09:09:04;4.97;;;4.20;;
10529;SDS011;5313;48.834;9.228;2022-08-20T09:11:32;4.50;;;4.10;;
10529;SDS011;5313;48.834;9.228;2022-08-20T09:14:11;3.93;;;3.60;;
10529;SDS011;5313;48.834;9.228;2022-08-20T09:16:36;4.13;;;3.73;;
10529;SDS011;5313;48.834;9.228;2022-08-20T09:19:02;3.37;;;3.07;;
10529;SDS011;5313;48.834;9.228;2022-08-20T09:21:28;4.13;;;3.37;;
10529;SDS011;5313;48.834;9.228;2022-08-20T09:23:54;3.10;;;2.83;;
10529;SDS011;5313;48.834;9.228;2022-08-20T09:26:19;3.60;;;2.60;;
10529;SDS011;5313;48.834;9.228;2022-08-20T09:28:45;2.67;;;2.30;;
10529;SDS011;5313;48.834;9.228;2022-08-20T09:31:10;2.53;;;2.00;;
10529;SDS011;5313;48.834;9.228;2022-08-20T09:33:36;2.20;;;2.00;;
10529;SDS011;5313;48.834;9.228;2022-08-20T09:36:01;2.93;;;2.00;;
10529;SDS011;5313;48.834;9.228;2022-08-20T09:38:27;1.90;;;1.57;;
10529;SDS011;5313;48.834;9.228;2022-08-20T09:40:53;2.23;;;1.87;;
10529;SDS011;5313;48.834;9.228;2022-08-20T09:43:18;2.50;;;1.80;;
10529;SDS011;5313;48.834;9.228;2022-08-20T09:45:44;2.17;;;1.90;;
10529;SDS011;5313;48.834;9.228;2022-08-20T09:48:09;2.07;;;1.80;;
10529;SDS011;5313;48.834;9.228;2022-08-20T09:50:35;3.27;;;2.00;;
10529;SDS011;5313;48.834;9.228;2022-08-20T09:53:10;4.77;;;2.00;;
10529;SDS011;5313;48.834;9.228;2022-08-20T09:55:40;3.93;;;1.90;;
10529;SDS011;5313;48.834;9.228;2022-08-20T09:58:11;2.13;;;1.90;;
10529;SDS011;5313;48.834;9.228;2022-08-20T10:00:57;4.20;;;2.30;;
10529;SDS011;5313;48.834;9.228;2022-08-20T10:03:27;2.23;;;2.03;;
10529;SDS011;5313;48.834;9.228;2022-08-20T10:05:53;2.30;;;2.10;;
10529;SDS011;5313;48.834;9.228;2022-08-20T10:08:18;3.53;;;2.13;;
10529;SDS011;5313;48.834;9.228;2022-08-20T10:10:44;3.67;;;2.10;;
10529;SDS011;5313;48.834;9.228;2022-08-20T10:13:09;2.63;;;2.37;;
10529;SDS011;5313;48.834;9.228;2022-08-20T10:15:34;3.33;;;1.90;;
10529;SDS011;5313;48.834;9.228;2022-08-20T10:18:03;3.60;;;1.93;;
10529;SDS011;5313;48.834;9.228;2022-08-20T10:20:31;2.07;;;1.87;;
10529;SDS011;5313;48.834;9.228;2022-08-20T10:22:57;2.70;;;2.27;;
10529;SDS011;5313;48.834;9.228;2022-08-20T10:25:23;2.00;;;1.60;;
10529;SDS011;5313;48.834;9.228;2022-08-20T10:27:49;2.40;;;2.20;;
10529;SDS011;5313;48.834;9.228;2022-08-20T10:30:14;3.27;;;2.80;;
10529;SDS011;5313;48.834;9.228;2022-08-20T10:32:40;2.30;;;2.00;;
10529;SDS011;5313;48.834;9.228;2022-08-20T10:35:07;3.30;;;1.63;;
10529;SDS011;5313;48.834;9.228;2022-08-20T10:37:33;1.70;;;1.50;;
10529;SDS011;5313;48.834;9.228;2022-08-20T10:39:58;2.00;;;1.30;;
10529;SDS011;5313;48.834;9.228;2022-08-20T10:42:24;1.67;;;1.33;;
10529;SDS011;5313;48.834;9.228;2022-08-20T10:44:49;0.93;;;0.93;;
10529;SDS011;5313;48.834;9.228;2022-08-20T10:47:36;2.00;;;1.07;;
10529;SDS011;5313;48.834;9.228;2022-08-20T10:50:02;1.00;;;0.90;;
10529;SDS011;5313;48.834;9.228;2022-08-20T10:52:29;2.90;;;1.20;;
10529;SDS011;5313;48.834;9.228;2022-08-20T10:54:55;2.23;;;1.30;;
10529;SDS011;5313;48.834;9.228;2022-08-20T10:57:22;2.43;;;1.83;;
10529;SDS011;5313;48.834;9.228;2022-08-20T10:59:49;1.70;;;1.60;;
10529;SDS011;5313;48.834;9.228;2022-08-20T11:02:16;1.97;;;1.20;;
10529;SDS011;5313;48.834;9.228;2022-08-20T11:04:43;2.40;;;0.80;;
10529;SDS011;5313;48.834;9.228;2022-08-20T11:07:26;0.70;;;0.70;;
10529;SDS011;5313;48.834;9.228;2022-08-20T11:09:56;0.60;;;0.60;;
10529;SDS011;5313;48.834;9.228;2022-08-20T11:12:22;1.00;;;0.80;;
10529;SDS011;5313;48.834;9.228;2022-08-20T11:14:48;0.90;;;0.60;;
10529;SDS011;5313;48.834;9.228;2022-08-20T11:17:21;1.23;;;0.80;;
10529;SDS011;5313;48.834;9.228;2022-08-20T11:19:50;1.00;;;0.80;;
10529;SDS011;5313;48.834;9.228;2022-08-20T11:22:16;1.30;;;1.00;;
10529;SDS011;5313;48.834;9.228;2022-08-20T11:24:42;1.47;;;1.07;;
10529;SDS011;5313;48.834;9.228;2022-08-20T11:27:08;1.07;;;0.93;;
10529;SDS011;5313;48.834;9.228;2022-08-20T11:29:35;1.57;;;0.93;;
10529;SDS011;5313;48.834;9.228;2022-08-20T11:32:02;1.70;;;1.30;;
10529;SDS011;5313;48.834;9.228;2022-08-20T11:34:29;1.07;;;0.97;;
10529;SDS011;5313;48.834;9.228;2022-08-20T11:36:54;1.70;;;0.70;;
10529;SDS011;5313;48.834;9.228;2022-08-20T11:39:21;2.50;;;0.80;;
10529;SDS011;5313;48.834;9.228;2022-08-20T11:41:46;0.80;;;0.80;;
10529;SDS011;5313;48.834;9.228;2022-08-20T11:44:12;2.00;;;0.60;;
10529;SDS011;5313;48.834;9.228;2022-08-20T11:46:37;1.90;;;0.87;;
10529;SDS011;5313;48.834;9.228;2022-08-20T11:49:03;1.77;;;0.70;;
10529;SDS011;5313;48.834;9.228;2022-08-20T11:51:28;1.20;;;0.70;;
10529;SDS011;5313;48.834;9.228;2022-08-20T11:53:54;1.33;;;0.70;;
10529;SDS011;5313;48.834;9.228;2022-08-20T11:56:20;1.00;;;0.90;;
10529;SDS011;5313;48.834;9.228;2022-08-20T11:58:45;1.47;;;0.83;;
10529;SDS011;5313;48.834;9.228;2022-08-20T12:01:11;1.17;;;0.80;;
10529;SDS011;5313;48.834;9.228;2022-08-20T12:03:37;0.73;;;0.60;;
10529;SDS011;5313;48.834;9.228;2022-08-20T12:06:03;0.80;;;0.60;;
10529;SDS011;5313;48.834;9.228;2022-08-20T12:08:28;1.37;;;0.70;;
10529;SDS011;5313;48.834;9.228;2022-08-20T12:10:58;1.47;;;0.80;;
10529;SDS011;5313;48.834;9.228;2022-08-20T12:13:25;1.10;;;0.80;;
10529;SDS011;5313;48.834;9.228;2022-08-20T12:15:53;1.80;;;1.00;;
10529;SDS011;5313;48.834;9.228;2022-08-20T12:18:19;1.20;;;1.10;;
10529;SDS011;5313;48.834;9.228;2022-08-20T12:20:45;0.80;;;0.80;;
10529;SDS011;5313;48.834;9.228;2022-08-20T12:23:11;1.87;;;0.90;;
10529;SDS011;5313;48.834;9.228;2022-08-20T12:25:36;6.37;;;5.00;;
10529;SDS011;5313;48.834;9.228;2022-08-20T12:28:02;7.30;;;1.57;;
10529;SDS011;5313;48.834;9.228;2022-08-20T12:30:29;3.37;;;1.50;;
10529;SDS011;5313;48.834;9.228;2022-08-20T12:32:55;3.40;;;1.53;;
10529;SDS011;5313;48.834;9.228;2022-08-20T12:35:20;2.17;;;1.37;;
10529;SDS011;5313;48.834;9.228;2022-08-20T12:37:46;2.73;;;1.50;;
10529;SDS011;5313;48.834;9.228;2022-08-20T12:40:13;1.60;;;1.50;;
10529;SDS011;5313;48.834;9.228;2022-08-20T12:42:41;4.47;;;1.80;;
10529;SDS011;5313;48.834;9.228;2022-08-20T12:45:07;2.80;;;2.03;;
10529;SDS011;5313;48.834;9.228;2022-08-20T12:47:34;4.43;;;1.80;;
10529;SDS011;5313;48.834;9.228;2022-08-20T12:50:03;3.43;;;2.13;;
10529;SDS011;5313;48.834;9.228;2022-08-20T12:52:31;4.30;;;1.90;;
10529;SDS011;5313;48.834;9.228;2022-08-20T12:54:58;3.17;;;2.00;;
10529;SDS011;5313;48.834;9.228;2022-08-20T12:59:54;10.67;;;3.40;;
10529;SDS011;5313;48.834;9.228;2022-08-20T13:02:21;4.13;;;1.40;;
10529;SDS011;5313;48.834;9.228;2022-08-20T13:04:47;2.60;;;1.90;;
10529;SDS011;5313;48.834;9.228;2022-08-20T13:07:12;3.43;;;1.70;;
10529;SDS011;5313;48.834;9.228;2022-08-20T13:09:39;5.43;;;2.47;;
10529;SDS011;5313;48.834;9.228;2022-08-20T13:12:05;5.23;;;2.63;;
10529;SDS011;5313;48.834;9.228;2022-08-20T13:14:31;4.20;;;3.10;;
10529;SDS011;5313;48.834;9.228;2022-08-20T13:16:58;5.37;;;3.40;;
10529;SDS011;5313;48.834;9.228;2022-08-20T13:19:24;3.07;;;2.77;;
10529;SDS011;5313;48.834;9.228;2022-08-20T13:21:51;4.37;;;2.97;;
10529;SDS011;5313;48.834;9.228;2022-08-20T13:24:17;3.47;;;2.43;;
10529;SDS011;5313;48.834;9.228;2022-08-20T13:26:43;3.67;;;2.50;;
10529;SDS011;5313;48.834;9.228;2022-08-20T13:29:09;2.73;;;1.40;;
10529;SDS011;5313;48.834;9.228;2022-08-20T13:31:35;3.17;;;1.50;;
10529;SDS011;5313;48.834;9.228;2022-08-20T13:34:00;1.17;;;1.00;;
10529;SDS011;5313;48.834;9.228;2022-08-20T13:36:26;1.40;;;1.10;;
10529;SDS011;5313;48.834;9.228;2022-08-20T13:38:52;1.63;;;1.00;;
10529;SDS011;5313;48.834;9.228;2022-08-20T13:41:17;1.97;;;1.30;;
10529;SDS011;5313;48.834;9.228;2022-08-20T13:43:43;1.77;;;1.30;;
10529;SDS011;5313;48.834;9.228;2022-08-20T13:46:08;1.70;;;1.10;;
10529;SDS011;5313;48.834;9.228;2022-08-20T13:48:34;1.60;;;1.13;;
10529;SDS011;5313;48.834;9.228;2022-08-20T13:50:59;1.10;;;1.00;;
10529;SDS011;5313;48.834;9.228;2022-08-20T13:53:25;2.00;;;1.20;;
10529;SDS011;5313;48.834;9.228;2022-08-20T13:55:50;1.27;;;1.17;;
10529;SDS011;5313;48.834;9.228;2022-08-20T13:58:16;1.80;;;1.40;;
10529;SDS011;5313;48.834;9.228;2022-08-20T14:00:43;1.67;;;1.43;;
10529;SDS011;5313;48.834;9.228;2022-08-20T14:03:09;1.77;;;1.43;;
10529;SDS011;5313;48.834;9.228;2022-08-20T14:05:36;1.90;;;1.33;;
10529;SDS011;5313;48.834;9.228;2022-08-20T14:08:13;2.33;;;1.50;;
10529;SDS011;5313;48.834;9.228;2022-08-20T14:10:41;1.67;;;1.40;;
10529;SDS011;5313;48.834;9.228;2022-08-20T14:13:07;1.53;;;1.20;;
10529;SDS011;5313;48.834;9.228;2022-08-20T14:15:34;3.23;;;1.67;;
10529;SDS011;5313;48.834;9.228;2022-08-20T14:18:00;3.77;;;1.57;;
10529;SDS011;5313;48.834;9.228;2022-08-20T14:20:27;1.58;;;1.30;;
10529;SDS011;5313;48.834;9.228;2022-08-20T14:22:55;1.60;;;1.50;;
10529;SDS011;5313;48.834;9.228;2022-08-20T14:25:21;1.60;;;1.50;;
10529;SDS011;5313;48.834;9.228;2022-08-20T14:27:48;1.50;;;1.40;;
10529;SDS011;5313;48.834;9.228;2022-08-20T14:30:22;2.80;;;1.40;;
10529;SDS011;5313;48.834;9.228;2022-08-20T14:32:50;1.40;;;1.30;;
10529;SDS011;5313;48.834;9.228;2022-08-20T14:35:16;8.70;;;7.83;;
10529;SDS011;5313;48.834;9.228;2022-08-20T14:37:45;2.47;;;1.53;;
10529;SDS011;5313;48.834;9.228;2022-08-20T14:40:13;2.57;;;1.00;;
10529;SDS011;5313;48.834;9.228;2022-08-20T14:42:41;4.37;;;3.97;;
10529;SDS011;5313;48.834;9.228;2022-08-20T14:45:09;1.23;;;1.00;;
10529;SDS011;5313;48.834;9.228;2022-08-20T14:47:36;1.40;;;1.30;;
10529;SDS011;5313;48.834;9.228;2022-08-20T14:50:11;1.77;;;1.23;;
10529;SDS011;5313;48.834;9.228;2022-08-20T14:52:39;1.70;;;1.20;;
10529;SDS011;5313;48.834;9.228;2022-08-20T14:55:06;1.53;;;1.17;;
10529;SDS011;5313;48.834;9.228;2022-08-20T14:57:34;1.40;;;1.10;;
10529;SDS011;5313;48.834;9.228;2022-08-20T14:59:59;1.27;;;1.17;;
10529;SDS011;5313;48.834;9.228;2022-08-20T15:02:25;1.53;;;1.10;;
10529;SDS011;5313;48.834;9.228;2022-08-20T15:04:51;2.03;;;1.00;;
10529;SDS011;5313;48.834;9.228;2022-08-20T15:07:24;2.77;;;1.13;;
10529;SDS011;5313;48.834;9.228;2022-08-20T15:09:52;2.53;;;1.40;;